METARs

EEEI - Ämari Air Base

EEEI 180950Z 03016G26KT 9999 BKN035 07/M00 Q1033 R06/090095 NOSI

EEKA - Kärdla

EEKA 170850Z 26007KT 9999 BKN011 OVC025 08/06 Q1036

EEKE - Kuressaare

EEKE 181050Z 03013KT 9999 BKN032 08/02 Q1032

EEPU - Pärnu

EEPU 181050Z 03015KT 9999 SCT031 06/01 Q1031

EETN - Lennart Meri Tallinn

EETN 181050Z 04015G25KT 9999 OVC035 06/M00 Q1033 R08/19//95 NOSI

EETU - Tartu

EETU 181050Z AUTO 04014KT 020V080 9999 SCT022/// BKN028/// BKN04

Sign In

ATC Booking

currently no ATC Bookings...